sensor_id;sensor_type;location;lat;lon;timestamp;temperature;humidity
23497;DHT22;11925;48.122;11.560;2024-01-27T00:00:20;10.50;98.00
23497;DHT22;11925;48.122;11.560;2024-01-27T00:02:49;10.40;97.80
23497;DHT22;11925;48.122;11.560;2024-01-27T00:05:17;10.40;97.80
23497;DHT22;11925;48.122;11.560;2024-01-27T00:07:46;10.40;97.70
23497;DHT22;11925;48.122;11.560;2024-01-27T00:10:15;10.40;97.70
23497;DHT22;11925;48.122;11.560;2024-01-27T00:12:44;10.40;97.80
23497;DHT22;11925;48.122;11.560;2024-01-27T00:15:13;10.40;97.90
23497;DHT22;11925;48.122;11.560;2024-01-27T00:17:41;10.30;97.90
23497;DHT22;11925;48.122;11.560;2024-01-27T00:20:11;10.30;97.90
23497;DHT22;11925;48.122;11.560;2024-01-27T00:22:39;10.30;97.90
23497;DHT22;11925;48.122;11.560;2024-01-27T00:25:08;10.30;97.90
23497;DHT22;11925;48.122;11.560;2024-01-27T00:27:36;10.30;97.90
23497;DHT22;11925;48.122;11.560;2024-01-27T00:30:08;10.20;97.90
23497;DHT22;11925;48.122;11.560;2024-01-27T00:32:38;10.30;97.80
23497;DHT22;11925;48.122;11.560;2024-01-27T00:35:08;10.30;97.80
23497;DHT22;11925;48.122;11.560;2024-01-27T00:37:38;10.20;97.80
23497;DHT22;11925;48.122;11.560;2024-01-27T00:40:08;10.20;97.80
23497;DHT22;11925;48.122;11.560;2024-01-27T00:42:37;10.20;97.80
23497;DHT22;11925;48.122;11.560;2024-01-27T00:45:08;10.20;97.70
23497;DHT22;11925;48.122;11.560;2024-01-27T00:47:36;10.20;97.60
23497;DHT22;11925;48.122;11.560;2024-01-27T00:50:05;10.20;97.50
23497;DHT22;11925;48.122;11.560;2024-01-27T00:52:35;10.20;97.40
23497;DHT22;11925;48.122;11.560;2024-01-27T00:55:05;10.20;97.40
23497;DHT22;11925;48.122;11.560;2024-01-27T00:57:33;10.10;97.30
23497;DHT22;11925;48.122;11.560;2024-01-27T01:00:02;10.20;97.30
23497;DHT22;11925;48.122;11.560;2024-01-27T01:02:33;10.20;97.30
23497;DHT22;11925;48.122;11.560;2024-01-27T01:05:02;10.20;97.20
23497;DHT22;11925;48.122;11.560;2024-01-27T01:07:31;10.20;97.20
23497;DHT22;11925;48.122;11.560;2024-01-27T01:09:59;10.10;97.20
23497;DHT22;11925;48.122;11.560;2024-01-27T01:12:28;10.10;97.20
23497;DHT22;11925;48.122;11.560;2024-01-27T01:14:57;10.10;97.20
23497;DHT22;11925;48.122;11.560;2024-01-27T01:17:25;10.10;97.10
23497;DHT22;11925;48.122;11.560;2024-01-27T01:19:55;10.10;97.20
23497;DHT22;11925;48.122;11.560;2024-01-27T01:22:24;10.10;97.00
23497;DHT22;11925;48.122;11.560;2024-01-27T01:24:52;10.10;97.00
23497;DHT22;11925;48.122;11.560;2024-01-27T01:27:21;10.10;97.00
23497;DHT22;11925;48.122;11.560;2024-01-27T01:29:49;10.10;97.00
23497;DHT22;11925;48.122;11.560;2024-01-27T01:32:18;10.10;97.10
23497;DHT22;11925;48.122;11.560;2024-01-27T01:34:47;10.10;97.10
23497;DHT22;11925;48.122;11.560;2024-01-27T01:37:17;10.10;97.00
23497;DHT22;11925;48.122;11.560;2024-01-27T01:39:45;10.10;97.00
23497;DHT22;11925;48.122;11.560;2024-01-27T01:42:14;10.10;96.90
23497;DHT22;11925;48.122;11.560;2024-01-27T01:44:42;10.10;96.90
23497;DHT22;11925;48.122;11.560;2024-01-27T01:47:11;10.10;96.90
23497;DHT22;11925;48.122;11.560;2024-01-27T01:49:40;10.10;96.80
23497;DHT22;11925;48.122;11.560;2024-01-27T01:52:09;10.00;96.70
23497;DHT22;11925;48.122;11.560;2024-01-27T01:54:40;10.00;96.70
23497;DHT22;11925;48.122;11.560;2024-01-27T01:57:08;10.00;96.60
23497;DHT22;11925;48.122;11.560;2024-01-27T01:59:37;10.00;96.50
23497;DHT22;11925;48.122;11.560;2024-01-27T02:02:08;10.10;96.50
23497;DHT22;11925;48.122;11.560;2024-01-27T02:04:40;10.00;96.50
23497;DHT22;11925;48.122;11.560;2024-01-27T02:07:09;10.00;96.50
23497;DHT22;11925;48.122;11.560;2024-01-27T02:09:37;10.00;96.50
23497;DHT22;11925;48.122;11.560;2024-01-27T02:12:08;10.00;96.40
23497;DHT22;11925;48.122;11.560;2024-01-27T02:14:37;10.00;96.40
23497;DHT22;11925;48.122;11.560;2024-01-27T02:17:05;10.00;96.30
23497;DHT22;11925;48.122;11.560;2024-01-27T02:19:34;10.00;96.30
23497;DHT22;11925;48.122;11.560;2024-01-27T02:22:03;10.10;96.30
23497;DHT22;11925;48.122;11.560;2024-01-27T02:24:33;10.10;96.30
23497;DHT22;11925;48.122;11.560;2024-01-27T02:27:01;10.00;96.30
23497;DHT22;11925;48.122;11.560;2024-01-27T02:29:30;10.00;96.20
23497;DHT22;11925;48.122;11.560;2024-01-27T02:31:58;10.00;96.10
23497;DHT22;11925;48.122;11.560;2024-01-27T02:34:27;10.00;96.10
23497;DHT22;11925;48.122;11.560;2024-01-27T02:36:55;10.00;96.00
23497;DHT22;11925;48.122;11.560;2024-01-27T02:39:24;10.00;96.00
23497;DHT22;11925;48.122;11.560;2024-01-27T02:41:54;10.00;96.00
23497;DHT22;11925;48.122;11.560;2024-01-27T02:44:23;10.00;95.90
23497;DHT22;11925;48.122;11.560;2024-01-27T02:46:51;10.00;95.90
23497;DHT22;11925;48.122;11.560;2024-01-27T02:49:20;10.00;95.80
23497;DHT22;11925;48.122;11.560;2024-01-27T02:51:48;9.90;95.70
23497;DHT22;11925;48.122;11.560;2024-01-27T02:54:16;9.90;95.70
23497;DHT22;11925;48.122;11.560;2024-01-27T02:56:45;9.90;95.60
23497;DHT22;11925;48.122;11.560;2024-01-27T02:59:15;10.00;95.60
23497;DHT22;11925;48.122;11.560;2024-01-27T03:01:43;9.90;95.60
23497;DHT22;11925;48.122;11.560;2024-01-27T03:04:12;10.00;95.60
23497;DHT22;11925;48.122;11.560;2024-01-27T03:06:40;10.00;95.50
23497;DHT22;11925;48.122;11.560;2024-01-27T03:09:09;9.90;95.50
23497;DHT22;11925;48.122;11.560;2024-01-27T03:11:38;10.00;95.50
23497;DHT22;11925;48.122;11.560;2024-01-27T03:14:06;9.90;95.40
23497;DHT22;11925;48.122;11.560;2024-01-27T03:16:36;9.90;95.50
23497;DHT22;11925;48.122;11.560;2024-01-27T03:19:04;9.90;95.50
23497;DHT22;11925;48.122;11.560;2024-01-27T03:21:33;9.90;95.40
23497;DHT22;11925;48.122;11.560;2024-01-27T03:24:02;9.90;95.40
23497;DHT22;11925;48.122;11.560;2024-01-27T03:26:30;9.90;95.30
23497;DHT22;11925;48.122;11.560;2024-01-27T03:28:59;9.90;95.30
23497;DHT22;11925;48.122;11.560;2024-01-27T03:31:30;9.90;95.30
23497;DHT22;11925;48.122;11.560;2024-01-27T03:34:01;9.90;95.30
23497;DHT22;11925;48.122;11.560;2024-01-27T03:36:30;9.90;95.30
23497;DHT22;11925;48.122;11.560;2024-01-27T03:38:59;9.90;95.30
23497;DHT22;11925;48.122;11.560;2024-01-27T03:41:27;9.90;95.20
23497;DHT22;11925;48.122;11.560;2024-01-27T03:43:56;9.80;95.20
23497;DHT22;11925;48.122;11.560;2024-01-27T03:46:24;9.90;95.20
23497;DHT22;11925;48.122;11.560;2024-01-27T03:48:52;9.90;95.10
23497;DHT22;11925;48.122;11.560;2024-01-27T03:51:23;9.90;95.10
23497;DHT22;11925;48.122;11.560;2024-01-27T03:53:52;9.90;95.10
23497;DHT22;11925;48.122;11.560;2024-01-27T03:56:21;9.80;95.00
23497;DHT22;11925;48.122;11.560;2024-01-27T03:58:49;9.80;95.00
23497;DHT22;11925;48.122;11.560;2024-01-27T04:01:18;9.80;94.90
23497;DHT22;11925;48.122;11.560;2024-01-27T04:03:46;9.80;95.00
23497;DHT22;11925;48.122;11.560;2024-01-27T04:06:15;9.80;94.90
23497;DHT22;11925;48.122;11.560;2024-01-27T04:08:45;9.80;94.90
23497;DHT22;11925;48.122;11.560;2024-01-27T04:11:19;9.80;94.80
23497;DHT22;11925;48.122;11.560;2024-01-27T04:13:49;9.80;94.80
23497;DHT22;11925;48.122;11.560;2024-01-27T04:16:19;9.80;94.80
23497;DHT22;11925;48.122;11.560;2024-01-27T04:18:48;9.80;95.20
23497;DHT22;11925;48.122;11.560;2024-01-27T04:21:16;9.80;94.80
23497;DHT22;11925;48.122;11.560;2024-01-27T04:23:46;9.80;94.70
23497;DHT22;11925;48.122;11.560;2024-01-27T04:26:14;9.80;94.70
23497;DHT22;11925;48.122;11.560;2024-01-27T04:28:43;9.80;94.70
23497;DHT22;11925;48.122;11.560;2024-01-27T04:31:12;9.80;94.70
23497;DHT22;11925;48.122;11.560;2024-01-27T04:33:40;9.80;95.10
23497;DHT22;11925;48.122;11.560;2024-01-27T04:36:09;9.80;94.70
23497;DHT22;11925;48.122;11.560;2024-01-27T04:38:37;9.80;94.80
23497;DHT22;11925;48.122;11.560;2024-01-27T04:41:07;9.80;94.70
23497;DHT22;11925;48.122;11.560;2024-01-27T04:43:36;9.80;94.70
23497;DHT22;11925;48.122;11.560;2024-01-27T04:46:04;9.80;94.70
23497;DHT22;11925;48.122;11.560;2024-01-27T04:48:32;9.80;94.60
23497;DHT22;11925;48.122;11.560;2024-01-27T04:51:01;9.80;94.70
23497;DHT22;11925;48.122;11.560;2024-01-27T04:53:29;9.80;94.60
23497;DHT22;11925;48.122;11.560;2024-01-27T04:55:58;9.80;94.50
23497;DHT22;11925;48.122;11.560;2024-01-27T04:58:28;9.80;94.50
23497;DHT22;11925;48.122;11.560;2024-01-27T05:00:56;9.80;94.50
23497;DHT22;11925;48.122;11.560;2024-01-27T05:03:25;9.80;94.50
23497;DHT22;11925;48.122;11.560;2024-01-27T05:05:53;9.80;94.50
23497;DHT22;11925;48.122;11.560;2024-01-27T05:08:22;9.70;94.50
23497;DHT22;11925;48.122;11.560;2024-01-27T05:10:50;9.70;94.40
23497;DHT22;11925;48.122;11.560;2024-01-27T05:13:22;9.70;94.40
23497;DHT22;11925;48.122;11.560;2024-01-27T05:15:52;9.70;94.30
23497;DHT22;11925;48.122;11.560;2024-01-27T05:18:20;9.70;94.40
23497;DHT22;11925;48.122;11.560;2024-01-27T05:20:49;9.70;94.30
23497;DHT22;11925;48.122;11.560;2024-01-27T05:23:17;9.90;94.30
23497;DHT22;11925;48.122;11.560;2024-01-27T05:25:46;9.70;94.60
23497;DHT22;11925;48.122;11.560;2024-01-27T05:28:14;9.70;94.30
23497;DHT22;11925;48.122;11.560;2024-01-27T05:30:43;9.70;94.30
23497;DHT22;11925;48.122;11.560;2024-01-27T05:33:13;9.60;94.30
23497;DHT22;11925;48.122;11.560;2024-01-27T05:35:42;9.70;94.40
23497;DHT22;11925;48.122;11.560;2024-01-27T05:38:10;9.70;94.40
23497;DHT22;11925;48.122;11.560;2024-01-27T05:40:38;9.60;94.40
23497;DHT22;11925;48.122;11.560;2024-01-27T05:43:08;9.60;94.30
23497;DHT22;11925;48.122;11.560;2024-01-27T05:45:36;9.60;94.30
23497;DHT22;11925;48.122;11.560;2024-01-27T05:48:06;9.60;94.30
23497;DHT22;11925;48.122;11.560;2024-01-27T05:50:36;9.60;94.40
23497;DHT22;11925;48.122;11.560;2024-01-27T05:53:04;9.60;94.40
23497;DHT22;11925;48.122;11.560;2024-01-27T05:55:33;9.60;94.40
23497;DHT22;11925;48.122;11.560;2024-01-27T05:58:02;9.60;94.40
23497;DHT22;11925;48.122;11.560;2024-01-27T06:00:30;9.60;94.30
23497;DHT22;11925;48.122;11.560;2024-01-27T06:02:59;9.50;94.30
23497;DHT22;11925;48.122;11.560;2024-01-27T06:05:27;9.50;94.30
23497;DHT22;11925;48.122;11.560;2024-01-27T06:07:57;9.50;94.30
23497;DHT22;11925;48.122;11.560;2024-01-27T06:10:26;9.50;94.40
23497;DHT22;11925;48.122;11.560;2024-01-27T06:12:54;9.50;94.30
23497;DHT22;11925;48.122;11.560;2024-01-27T06:15:23;9.50;94.30
23497;DHT22;11925;48.122;11.560;2024-01-27T06:17:52;9.50;94.30
23497;DHT22;11925;48.122;11.560;2024-01-27T06:20:21;9.30;94.20
23497;DHT22;11925;48.122;11.560;2024-01-27T06:22:49;9.50;94.30
23497;DHT22;11925;48.122;11.560;2024-01-27T06:25:21;9.50;94.20
23497;DHT22;11925;48.122;11.560;2024-01-27T06:27:49;9.50;94.20
23497;DHT22;11925;48.122;11.560;2024-01-27T06:30:18;9.50;94.30
23497;DHT22;11925;48.122;11.560;2024-01-27T06:32:47;9.40;94.20
23497;DHT22;11925;48.122;11.560;2024-01-27T06:35:16;9.50;94.30
23497;DHT22;11925;48.122;11.560;2024-01-27T06:37:44;9.40;94.20
23497;DHT22;11925;48.122;11.560;2024-01-27T06:40:13;9.50;94.30
23497;DHT22;11925;48.122;11.560;2024-01-27T06:42:43;9.40;94.20
23497;DHT22;11925;48.122;11.560;2024-01-27T06:45:12;9.40;94.20
23497;DHT22;11925;48.122;11.560;2024-01-27T06:47:40;9.40;94.10
23497;DHT22;11925;48.122;11.560;2024-01-27T06:50:09;9.40;94.20
23497;DHT22;11925;48.122;11.560;2024-01-27T06:52:38;9.40;94.20
23497;DHT22;11925;48.122;11.560;2024-01-27T06:55:07;9.40;94.20
23497;DHT22;11925;48.122;11.560;2024-01-27T06:57:37;9.40;94.20
23497;DHT22;11925;48.122;11.560;2024-01-27T07:00:10;9.40;94.10
23497;DHT22;11925;48.122;11.560;2024-01-27T07:02:43;9.40;94.10
23497;DHT22;11925;48.122;11.560;2024-01-27T07:05:11;9.40;94.10
23497;DHT22;11925;48.122;11.560;2024-01-27T07:07:42;9.40;94.00
23497;DHT22;11925;48.122;11.560;2024-01-27T07:10:10;9.40;94.00
23497;DHT22;11925;48.122;11.560;2024-01-27T07:12:39;9.40;93.90
23497;DHT22;11925;48.122;11.560;2024-01-27T07:15:09;9.40;93.90
23497;DHT22;11925;48.122;11.560;2024-01-27T07:17:38;9.40;94.00
23497;DHT22;11925;48.122;11.560;2024-01-27T07:20:07;9.30;94.00
23497;DHT22;11925;48.122;11.560;2024-01-27T07:22:36;9.30;94.00
23497;DHT22;11925;48.122;11.560;2024-01-27T07:25:05;9.30;94.00
23497;DHT22;11925;48.122;11.560;2024-01-27T07:27:34;9.30;94.10
23497;DHT22;11925;48.122;11.560;2024-01-27T07:30:02;9.30;94.00
23497;DHT22;11925;48.122;11.560;2024-01-27T07:32:33;9.30;94.00
23497;DHT22;11925;48.122;11.560;2024-01-27T07:35:02;9.30;94.10
23497;DHT22;11925;48.122;11.560;2024-01-27T07:37:33;9.30;94.10
23497;DHT22;11925;48.122;11.560;2024-01-27T07:40:01;9.30;94.10
23497;DHT22;11925;48.122;11.560;2024-01-27T07:42:30;9.30;94.20
23497;DHT22;11925;48.122;11.560;2024-01-27T07:44:58;9.30;94.10
23497;DHT22;11925;48.122;11.560;2024-01-27T07:47:27;9.30;94.20
23497;DHT22;11925;48.122;11.560;2024-01-27T07:49:57;9.30;94.20
23497;DHT22;11925;48.122;11.560;2024-01-27T07:52:25;9.40;94.30
23497;DHT22;11925;48.122;11.560;2024-01-27T07:54:54;9.40;94.30
23497;DHT22;11925;48.122;11.560;2024-01-27T07:57:22;9.40;94.30
23497;DHT22;11925;48.122;11.560;2024-01-27T07:59:51;9.40;94.40
23497;DHT22;11925;48.122;11.560;2024-01-27T08:02:19;9.40;94.40
23497;DHT22;11925;48.122;11.560;2024-01-27T08:04:48;9.40;94.50
23497;DHT22;11925;48.122;11.560;2024-01-27T08:07:18;9.40;94.50
23497;DHT22;11925;48.122;11.560;2024-01-27T08:09:46;9.40;94.50
23497;DHT22;11925;48.122;11.560;2024-01-27T08:12:15;9.40;94.50
23497;DHT22;11925;48.122;11.560;2024-01-27T08:14:43;9.40;94.50
23497;DHT22;11925;48.122;11.560;2024-01-27T08:17:12;9.40;94.60
23497;DHT22;11925;48.122;11.560;2024-01-27T08:19:40;9.40;94.60
23497;DHT22;11925;48.122;11.560;2024-01-27T08:22:09;9.50;94.60
23497;DHT22;11925;48.122;11.560;2024-01-27T08:24:38;9.50;94.60
23497;DHT22;11925;48.122;11.560;2024-01-27T08:27:07;9.50;94.60
23497;DHT22;11925;48.122;11.560;2024-01-27T08:29:36;9.50;94.70
23497;DHT22;11925;48.122;11.560;2024-01-27T08:32:05;9.50;94.80
23497;DHT22;11925;48.122;11.560;2024-01-27T08:34:34;9.50;94.80
23497;DHT22;11925;48.122;11.560;2024-01-27T08:37:02;9.50;94.80
23497;DHT22;11925;48.122;11.560;2024-01-27T08:39:43;9.50;94.80
23497;DHT22;11925;48.122;11.560;2024-01-27T08:42:12;9.50;94.80
23497;DHT22;11925;48.122;11.560;2024-01-27T08:44:40;9.50;94.80
23497;DHT22;11925;48.122;11.560;2024-01-27T08:47:09;9.50;94.80
23497;DHT22;11925;48.122;11.560;2024-01-27T08:49:37;9.60;94.90
23497;DHT22;11925;48.122;11.560;2024-01-27T08:52:06;9.50;94.80
23497;DHT22;11925;48.122;11.560;2024-01-27T08:54:35;9.60;94.80
23497;DHT22;11925;48.122;11.560;2024-01-27T08:57:05;9.60;94.70
23497;DHT22;11925;48.122;11.560;2024-01-27T08:59:34;9.60;94.70
23497;DHT22;11925;48.122;11.560;2024-01-27T09:02:03;9.60;94.70
23497;DHT22;11925;48.122;11.560;2024-01-27T09:04:32;9.60;94.80
23497;DHT22;11925;48.122;11.560;2024-01-27T09:07:00;9.60;94.90
23497;DHT22;11925;48.122;11.560;2024-01-27T09:09:29;9.60;94.80
23497;DHT22;11925;48.122;11.560;2024-01-27T09:11:57;9.60;94.80
23497;DHT22;11925;48.122;11.560;2024-01-27T09:14:28;9.60;94.80
23497;DHT22;11925;48.122;11.560;2024-01-27T09:16:56;9.60;94.70
23497;DHT22;11925;48.122;11.560;2024-01-27T09:19:24;9.60;94.80
23497;DHT22;11925;48.122;11.560;2024-01-27T09:21:53;9.60;94.80
23497;DHT22;11925;48.122;11.560;2024-01-27T09:24:22;9.60;94.80
23497;DHT22;11925;48.122;11.560;2024-01-27T09:26:50;9.60;94.70
23497;DHT22;11925;48.122;11.560;2024-01-27T09:29:19;9.50;94.70
23497;DHT22;11925;48.122;11.560;2024-01-27T09:31:49;9.60;94.60
23497;DHT22;11925;48.122;11.560;2024-01-27T09:34:17;9.60;94.50
23497;DHT22;11925;48.122;11.560;2024-01-27T09:36:46;9.60;94.50
23497;DHT22;11925;48.122;11.560;2024-01-27T09:39:15;9.60;94.40
23497;DHT22;11925;48.122;11.560;2024-01-27T09:41:45;9.60;94.50
23497;DHT22;11925;48.122;11.560;2024-01-27T09:44:18;9.60;94.60
23497;DHT22;11925;48.122;11.560;2024-01-27T09:46:46;9.60;94.60
23497;DHT22;11925;48.122;11.560;2024-01-27T09:49:17;9.60;94.50
23497;DHT22;11925;48.122;11.560;2024-01-27T09:51:46;9.70;94.60
23497;DHT22;11925;48.122;11.560;2024-01-27T09:54:16;9.60;94.60
23497;DHT22;11925;48.122;11.560;2024-01-27T09:56:46;9.60;94.50
23497;DHT22;11925;48.122;11.560;2024-01-27T09:59:16;9.60;94.50
23497;DHT22;11925;48.122;11.560;2024-01-27T10:01:46;9.70;94.50
23497;DHT22;11925;48.122;11.560;2024-01-27T10:04:17;9.70;94.40
23497;DHT22;11925;48.122;11.560;2024-01-27T10:06:47;9.70;94.50
23497;DHT22;11925;48.122;11.560;2024-01-27T10:09:17;9.60;94.60
23497;DHT22;11925;48.122;11.560;2024-01-27T10:11:47;9.70;94.70
23497;DHT22;11925;48.122;11.560;2024-01-27T10:14:15;9.60;94.50
23497;DHT22;11925;48.122;11.560;2024-01-27T10:16:44;9.60;94.60
23497;DHT22;11925;48.122;11.560;2024-01-27T10:19:17;9.70;94.60
23497;DHT22;11925;48.122;11.560;2024-01-27T10:21:46;9.60;94.50
23497;DHT22;11925;48.122;11.560;2024-01-27T10:24:14;9.60;94.40
23497;DHT22;11925;48.122;11.560;2024-01-27T10:26:43;9.70;94.50
23497;DHT22;11925;48.122;11.560;2024-01-27T10:29:12;9.70;94.40
23497;DHT22;11925;48.122;11.560;2024-01-27T10:31:40;9.70;94.40
23497;DHT22;11925;48.122;11.560;2024-01-27T10:34:09;9.70;94.50
23497;DHT22;11925;48.122;11.560;2024-01-27T10:36:44;9.70;94.50
23497;DHT22;11925;48.122;11.560;2024-01-27T10:39:20;9.70;94.50
23497;DHT22;11925;48.122;11.560;2024-01-27T10:41:51;9.70;94.50
23497;DHT22;11925;48.122;11.560;2024-01-27T10:44:20;9.70;94.50
23497;DHT22;11925;48.122;11.560;2024-01-27T10:46:49;9.70;94.50
23497;DHT22;11925;48.122;11.560;2024-01-27T10:49:18;9.80;94.50
23497;DHT22;11925;48.122;11.560;2024-01-27T10:51:54;9.80;94.70
23497;DHT22;11925;48.122;11.560;2024-01-27T10:54:24;9.70;94.70
23497;DHT22;11925;48.122;11.560;2024-01-27T10:56:56;9.70;94.70
23497;DHT22;11925;48.122;11.560;2024-01-27T10:59:26;9.70;94.60
23497;DHT22;11925;48.122;11.560;2024-01-27T11:01:56;9.70;94.60
23497;DHT22;11925;48.122;11.560;2024-01-27T11:04:26;9.70;94.60
23497;DHT22;11925;48.122;11.560;2024-01-27T11:06:58;9.70;94.40
23497;DHT22;11925;48.122;11.560;2024-01-27T11:09:29;9.80;94.40
23497;DHT22;11925;48.122;11.560;2024-01-27T11:12:01;9.80;94.50
23497;DHT22;11925;48.122;11.560;2024-01-27T11:14:30;9.80;94.70
23497;DHT22;11925;48.122;11.560;2024-01-27T11:16:58;9.70;94.60
23497;DHT22;11925;48.122;11.560;2024-01-27T11:19:27;9.80;94.60
23497;DHT22;11925;48.122;11.560;2024-01-27T11:22:03;9.70;94.60
23497;DHT22;11925;48.122;11.560;2024-01-27T11:24:32;9.70;94.50
23497;DHT22;11925;48.122;11.560;2024-01-27T11:27:02;9.70;94.30
23497;DHT22;11925;48.122;11.560;2024-01-27T11:29:31;9.70;94.20
23497;DHT22;11925;48.122;11.560;2024-01-27T11:32:02;9.70;94.20
23497;DHT22;11925;48.122;11.560;2024-01-27T11:34:44;9.70;94.10
23497;DHT22;11925;48.122;11.560;2024-01-27T11:37:15;9.70;94.00
23497;DHT22;11925;48.122;11.560;2024-01-27T11:39:47;9.60;94.00
23497;DHT22;11925;48.122;11.560;2024-01-27T11:42:16;9.60;93.90
23497;DHT22;11925;48.122;11.560;2024-01-27T11:44:45;9.70;93.90
23497;DHT22;11925;48.122;11.560;2024-01-27T11:47:17;9.70;93.90
23497;DHT22;11925;48.122;11.560;2024-01-27T11:49:51;9.70;93.90
23497;DHT22;11925;48.122;11.560;2024-01-27T11:52:23;9.70;93.70
23497;DHT22;11925;48.122;11.560;2024-01-27T11:54:55;9.70;93.70
23497;DHT22;11925;48.122;11.560;2024-01-27T11:57:24;9.70;93.80
23497;DHT22;11925;48.122;11.560;2024-01-27T11:59:53;9.70;93.80
23497;DHT22;11925;48.122;11.560;2024-01-27T12:02:22;9.70;93.70
23497;DHT22;11925;48.122;11.560;2024-01-27T12:04:51;9.80;93.80
23497;DHT22;11925;48.122;11.560;2024-01-27T12:07:22;9.70;94.00
23497;DHT22;11925;48.122;11.560;2024-01-27T12:09:51;9.80;94.20
23497;DHT22;11925;48.122;11.560;2024-01-27T12:12:20;9.80;94.10
23497;DHT22;11925;48.122;11.560;2024-01-27T12:14:50;9.80;94.30
23497;DHT22;11925;48.122;11.560;2024-01-27T12:17:21;9.80;94.40
23497;DHT22;11925;48.122;11.560;2024-01-27T12:19:52;9.80;94.20
23497;DHT22;11925;48.122;11.560;2024-01-27T12:22:23;9.70;94.00
23497;DHT22;11925;48.122;11.560;2024-01-27T12:24:53;9.70;93.80
23497;DHT22;11925;48.122;11.560;2024-01-27T12:27:22;9.80;93.80
23497;DHT22;11925;48.122;11.560;2024-01-27T12:29:51;9.80;93.90
23497;DHT22;11925;48.122;11.560;2024-01-27T12:32:20;9.70;93.90
23497;DHT22;11925;48.122;11.560;2024-01-27T12:34:48;9.80;93.80
23497;DHT22;11925;48.122;11.560;2024-01-27T12:37:18;9.70;93.70
23497;DHT22;11925;48.122;11.560;2024-01-27T12:39:50;9.80;93.70
23497;DHT22;11925;48.122;11.560;2024-01-27T12:42:19;9.80;93.80
23497;DHT22;11925;48.122;11.560;2024-01-27T12:44:48;9.80;93.80
23497;DHT22;11925;48.122;11.560;2024-01-27T12:47:16;9.90;94.10
23497;DHT22;11925;48.122;11.560;2024-01-27T12:49:46;9.90;94.40
23497;DHT22;11925;48.122;11.560;2024-01-27T12:52:15;9.90;94.70
23497;DHT22;11925;48.122;11.560;2024-01-27T12:54:43;9.90;94.70
23497;DHT22;11925;48.122;11.560;2024-01-27T12:57:13;9.90;94.60
23497;DHT22;11925;48.122;11.560;2024-01-27T12:59:42;9.80;94.70
23497;DHT22;11925;48.122;11.560;2024-01-27T13:02:11;9.90;94.60
23497;DHT22;11925;48.122;11.560;2024-01-27T13:04:39;9.90;94.50
23497;DHT22;11925;48.122;11.560;2024-01-27T13:07:08;9.80;94.50
23497;DHT22;11925;48.122;11.560;2024-01-27T13:09:36;9.90;94.50
23497;DHT22;11925;48.122;11.560;2024-01-27T13:12:05;9.90;94.50
23497;DHT22;11925;48.122;11.560;2024-01-27T13:14:35;9.90;94.50
23497;DHT22;11925;48.122;11.560;2024-01-27T13:17:04;9.90;94.60
23497;DHT22;11925;48.122;11.560;2024-01-27T13:19:32;9.90;94.90
23497;DHT22;11925;48.122;11.560;2024-01-27T13:22:01;9.90;95.00
23497;DHT22;11925;48.122;11.560;2024-01-27T13:24:30;9.90;95.10
23497;DHT22;11925;48.122;11.560;2024-01-27T13:26:59;9.90;94.80
23497;DHT22;11925;48.122;11.560;2024-01-27T13:29:27;9.80;94.60
23497;DHT22;11925;48.122;11.560;2024-01-27T13:31:57;9.80;94.30
23497;DHT22;11925;48.122;11.560;2024-01-27T13:34:28;9.80;93.90
23497;DHT22;11925;48.122;11.560;2024-01-27T13:36:58;9.80;93.60
23497;DHT22;11925;48.122;11.560;2024-01-27T13:39:29;9.80;93.50
23497;DHT22;11925;48.122;11.560;2024-01-27T13:41:58;9.80;93.20
23497;DHT22;11925;48.122;11.560;2024-01-27T13:44:27;9.80;93.10
23497;DHT22;11925;48.122;11.560;2024-01-27T13:46:58;9.80;93.20
23497;DHT22;11925;48.122;11.560;2024-01-27T13:49:28;9.80;93.10
23497;DHT22;11925;48.122;11.560;2024-01-27T13:51:56;9.90;93.70
23497;DHT22;11925;48.122;11.560;2024-01-27T13:54:25;9.90;93.60
23497;DHT22;11925;48.122;11.560;2024-01-27T13:56:54;9.90;93.80
23497;DHT22;11925;48.122;11.560;2024-01-27T13:59:23;9.90;93.90
23497;DHT22;11925;48.122;11.560;2024-01-27T14:01:51;9.90;94.20
23497;DHT22;11925;48.122;11.560;2024-01-27T14:04:21;10.00;94.40
23497;DHT22;11925;48.122;11.560;2024-01-27T14:06:52;10.00;94.50
23497;DHT22;11925;48.122;11.560;2024-01-27T14:09:21;9.90;94.40
23497;DHT22;11925;48.122;11.560;2024-01-27T14:11:50;10.00;94.60
23497;DHT22;11925;48.122;11.560;2024-01-27T14:14:19;10.00;94.50
23497;DHT22;11925;48.122;11.560;2024-01-27T14:16:47;10.00;94.50
23497;DHT22;11925;48.122;11.560;2024-01-27T14:19:16;10.00;94.30
23497;DHT22;11925;48.122;11.560;2024-01-27T14:21:46;10.00;94.60
23497;DHT22;11925;48.122;11.560;2024-01-27T14:24:14;10.00;94.20
23497;DHT22;11925;48.122;11.560;2024-01-27T14:26:43;10.00;94.10
23497;DHT22;11925;48.122;11.560;2024-01-27T14:29:11;10.00;94.30
23497;DHT22;11925;48.122;11.560;2024-01-27T14:31:40;10.00;94.10
23497;DHT22;11925;48.122;11.560;2024-01-27T14:34:08;10.00;94.20
23497;DHT22;11925;48.122;11.560;2024-01-27T14:36:38;10.00;94.30
23497;DHT22;11925;48.122;11.560;2024-01-27T14:39:09;10.00;94.40
23497;DHT22;11925;48.122;11.560;2024-01-27T14:41:38;10.00;94.40
23497;DHT22;11925;48.122;11.560;2024-01-27T14:44:06;10.00;94.40
23497;DHT22;11925;48.122;11.560;2024-01-27T14:46:35;9.90;94.60
23497;DHT22;11925;48.122;11.560;2024-01-27T14:49:07;10.00;94.60
23497;DHT22;11925;48.122;11.560;2024-01-27T14:51:36;10.00;94.60
23497;DHT22;11925;48.122;11.560;2024-01-27T14:54:04;10.00;94.70
23497;DHT22;11925;48.122;11.560;2024-01-27T14:56:35;10.00;94.70
23497;DHT22;11925;48.122;11.560;2024-01-27T14:59:03;10.00;94.70
23497;DHT22;11925;48.122;11.560;2024-01-27T15:01:34;10.00;94.60
23497;DHT22;11925;48.122;11.560;2024-01-27T15:04:03;10.00;94.60
23497;DHT22;11925;48.122;11.560;2024-01-27T15:06:32;10.00;94.40
23497;DHT22;11925;48.122;11.560;2024-01-27T15:09:02;10.00;94.30
23497;DHT22;11925;48.122;11.560;2024-01-27T15:11:30;10.00;94.20
23497;DHT22;11925;48.122;11.560;2024-01-27T15:14:00;10.00;94.20
23497;DHT22;11925;48.122;11.560;2024-01-27T15:16:28;10.00;94.20
23497;DHT22;11925;48.122;11.560;2024-01-27T15:18:59;10.00;94.20
23497;DHT22;11925;48.122;11.560;2024-01-27T15:21:28;10.00;94.20
23497;DHT22;11925;48.122;11.560;2024-01-27T15:23:57;10.00;94.30
23497;DHT22;11925;48.122;11.560;2024-01-27T15:26:27;10.00;94.20
23497;DHT22;11925;48.122;11.560;2024-01-27T15:28:56;10.40;94.60
23497;DHT22;11925;48.122;11.560;2024-01-27T15:31:25;10.10;94.60
23497;DHT22;11925;48.122;11.560;2024-01-27T15:33:54;10.00;94.50
23497;DHT22;11925;48.122;11.560;2024-01-27T15:36:23;10.00;94.50
23497;DHT22;11925;48.122;11.560;2024-01-27T15:38:52;10.00;94.60